Time;durP1;ratioP1;P1;durP2;ratioP2;P2;SDS_P1;SDS_P2;PMS_P1;PMS_P2;Temp;Humidity;BMP_temperature;BMP_pressure;BME280_temperature;BME280_humidity;BME280_pressure;Samples;Min_cycle;Max_cycle;Signal;HPM_P1;HPM_P2
2021/01/17 00:00:00;;;;;;;15.63;7.18;;;-1.90;99.90;;;;;;4923843;29;20039;-76
2021/01/17 00:02:26;;;;;;;15.55;7.53;;;-1.90;99.90;;;;;;4949744;28;20038;-76
2021/01/17 00:04:51;;;;;;;12.32;6.55;;;-2.00;99.90;;;;;;4952134;28;20058;-75
2021/01/17 00:07:18;;;;;;;15.02;7.72;;;-2.10;99.90;;;;;;4962327;28;20039;-75
2021/01/17 00:09:43;;;;;;;17.13;7.63;;;-2.00;99.90;;;;;;4965179;28;20403;-76
2021/01/17 00:12:09;;;;;;;12.95;7.28;;;-2.00;99.90;;;;;;4954849;28;20032;-76
2021/01/17 00:14:36;;;;;;;11.65;6.57;;;-2.00;99.90;;;;;;4958870;28;20183;-76
2021/01/17 00:17:02;;;;;;;15.05;8.20;;;-2.00;99.90;;;;;;4948917;28;20403;-75
2021/01/17 00:19:29;;;;;;;13.13;6.72;;;-1.90;99.90;;;;;;4963302;28;20049;-75
2021/01/17 00:21:55;;;;;;;15.63;7.50;;;-2.00;99.90;;;;;;4950460;28;20126;-76
2021/01/17 00:24:20;;;;;;;14.25;7.22;;;-1.90;99.90;;;;;;4943395;28;20122;-76
2021/01/17 00:26:46;;;;;;;13.15;7.57;;;-2.00;99.90;;;;;;4948820;28;20039;-76
2021/01/17 00:29:11;;;;;;;14.85;7.28;;;-2.00;99.90;;;;;;4956942;28;20038;-76
2021/01/17 00:31:37;;;;;;;15.77;7.35;;;-2.00;99.90;;;;;;4949414;28;20089;-76
2021/01/17 00:34:03;;;;;;;15.35;7.65;;;-2.00;99.90;;;;;;4946749;28;20035;-76
2021/01/17 00:36:35;;;;;;;16.60;7.47;;;-1.90;99.90;;;;;;4966375;28;20486;-77
2021/01/17 00:39:01;;;;;;;15.23;7.47;;;-2.00;99.90;;;;;;4952309;28;20045;-76
2021/01/17 00:41:31;;;;;;;14.57;7.15;;;-2.00;99.90;;;;;;4955711;28;20090;-76
2021/01/17 00:43:57;;;;;;;15.05;7.60;;;-2.00;99.90;;;;;;4943787;28;20028;-76
2021/01/17 00:46:23;;;;;;;14.65;7.40;;;-2.10;99.90;;;;;;4949320;28;20856;-76
2021/01/17 00:48:48;;;;;;;14.35;6.88;;;-2.20;99.90;;;;;;4950025;28;20109;-76
2021/01/17 00:51:14;;;;;;;15.75;7.68;;;-2.20;99.90;;;;;;4957895;28;20551;-77
2021/01/17 00:53:40;;;;;;;14.43;7.53;;;-2.20;99.90;;;;;;4951167;28;20050;-77
2021/01/17 00:56:05;;;;;;;14.52;7.82;;;-2.20;99.90;;;;;;4966395;28;20035;-77
2021/01/17 00:58:31;;;;;;;14.02;7.40;;;-2.20;99.90;;;;;;4950896;28;20030;-77
2021/01/17 01:01:06;;;;;;;14.47;7.40;;;-2.20;99.90;;;;;;4950194;28;20039;-77
2021/01/17 01:03:34;;;;;;;16.92;7.68;;;-2.30;99.90;;;;;;4958406;28;20269;-77
2021/01/17 01:06:00;;;;;;;13.15;7.40;;;-2.40;99.90;;;;;;4951406;28;20193;-77
2021/01/17 01:08:26;;;;;;;15.45;8.23;;;-2.40;99.90;;;;;;4951025;28;20027;-77
2021/01/17 01:10:51;;;;;;;14.02;7.65;;;-2.30;99.90;;;;;;4958009;28;20043;-77
2021/01/17 01:13:17;;;;;;;13.00;7.13;;;-2.30;99.90;;;;;;4949749;28;20037;-77
2021/01/17 01:15:43;;;;;;;14.90;7.45;;;-2.30;99.90;;;;;;4939114;29;20035;-76
2021/01/17 01:18:08;;;;;;;16.17;8.38;;;-2.30;99.90;;;;;;4952629;28;20031;-77
2021/01/17 01:20:34;;;;;;;16.33;8.25;;;-2.30;99.90;;;;;;4965462;28;20030;-77
2021/01/17 01:23:00;;;;;;;15.25;7.80;;;-2.20;99.90;;;;;;4962042;28;20047;-77
2021/01/17 01:25:25;;;;;;;16.08;8.25;;;-2.20;99.90;;;;;;4944459;28;20554;-77
2021/01/17 01:27:51;;;;;;;16.02;7.85;;;-2.30;99.90;;;;;;4959432;28;20732;-77
2021/01/17 01:30:17;;;;;;;17.77;8.57;;;-2.40;99.90;;;;;;4950907;28;20031;-76
2021/01/17 01:32:43;;;;;;;18.25;7.97;;;-2.40;99.90;;;;;;4950918;28;20034;-77
2021/01/17 01:35:09;;;;;;;15.90;7.88;;;-2.50;99.90;;;;;;4950776;28;20466;-77
2021/01/17 01:37:35;;;;;;;19.48;8.60;;;-2.50;99.90;;;;;;4972624;28;20031;-77
2021/01/17 01:40:03;;;;;;;16.17;8.13;;;-2.50;99.90;;;;;;4958731;28;20137;-77
2021/01/17 01:42:29;;;;;;;16.80;8.43;;;-2.50;99.90;;;;;;4939045;29;20062;-77
2021/01/17 01:44:54;;;;;;;15.18;8.52;;;-2.60;99.90;;;;;;4952735;28;20520;-77
2021/01/17 01:47:27;;;;;;;17.08;8.73;;;-2.70;99.90;;;;;;4937429;28;20035;-77
2021/01/17 01:49:53;;;;;;;22.15;9.20;;;-2.70;99.90;;;;;;4954201;28;20398;-77
2021/01/17 01:52:19;;;;;;;16.90;8.00;;;-2.70;99.90;;;;;;4939482;28;20027;-77
2021/01/17 01:54:45;;;;;;;18.48;8.55;;;-2.80;99.90;;;;;;4956414;28;20022;-77
2021/01/17 01:57:11;;;;;;;21.88;9.68;;;-2.80;99.90;;;;;;4944278;28;20725;-77
2021/01/17 01:59:37;;;;;;;18.20;8.73;;;-2.90;99.90;;;;;;4963090;28;20037;-77
2021/01/17 02:02:08;;;;;;;20.30;8.80;;;-2.80;99.90;;;;;;4961142;28;20041;-77
2021/01/17 02:04:38;;;;;;;18.55;8.98;;;-2.80;99.90;;;;;;4956526;28;20109;-76
2021/01/17 02:07:15;;;;;;;18.10;8.85;;;-3.00;99.90;;;;;;4942505;28;20042;-77
2021/01/17 02:09:41;;;;;;;22.55;9.13;;;-3.10;99.90;;;;;;4961887;28;20695;-76
2021/01/17 02:12:25;;;;;;;20.25;8.95;;;-3.20;99.90;;;;;;4949959;28;20034;-77
2021/01/17 02:15:00;;;;;;;20.23;9.30;;;-3.30;99.90;;;;;;4964212;28;20113;-77
2021/01/17 02:17:28;;;;;;;20.45;9.63;;;-3.40;99.90;;;;;;4956506;28;20043;-77
2021/01/17 02:20:08;;;;;;;20.10;9.35;;;-3.50;99.90;;;;;;4972640;28;20037;-76
2021/01/17 02:22:58;;;;;;;21.25;9.70;;;-3.50;99.90;;;;;;4946573;28;20071;-77
2021/01/17 02:25:25;;;;;;;21.45;10.55;;;-3.60;99.90;;;;;;4952937;28;20090;-77
2021/01/17 02:27:52;;;;;;;21.50;9.30;;;-3.60;99.90;;;;;;4936250;28;20031;-77
2021/01/17 02:30:20;;;;;;;21.23;9.38;;;-3.70;99.90;;;;;;4962107;28;20035;-76
2021/01/17 02:32:53;;;;;;;19.38;9.43;;;-3.80;99.90;;;;;;4964283;28;20763;-77
2021/01/17 02:35:21;;;;;;;23.40;9.40;;;-3.80;99.90;;;;;;4955091;28;20035;-77
2021/01/17 02:38:22;;;;;;;19.92;9.38;;;-3.80;99.90;;;;;;4940063;28;20042;-76
2021/01/17 02:41:13;;;;;;;21.15;9.57;;;-3.80;99.90;;;;;;4947911;28;20062;-77
2021/01/17 02:43:42;;;;;;;22.33;10.23;;;-3.90;99.90;;;;;;4947549;28;20038;-77
2021/01/17 02:46:08;;;;;;;19.88;9.75;;;-3.90;99.90;;;;;;4944452;28;20774;-77
2021/01/17 02:48:34;;;;;;;26.27;10.32;;;-3.90;99.90;;;;;;4939089;29;20573;-77
2021/01/17 02:51:00;;;;;;;22.52;10.32;;;-3.90;99.90;;;;;;4968070;28;20047;-77
2021/01/17 02:53:31;;;;;;;26.63;11.18;;;-3.90;99.90;;;;;;4970395;28;20043;-77
2021/01/17 02:55:59;;;;;;;20.33;9.43;;;-3.90;99.90;;;;;;4944148;28;20097;-77
2021/01/17 02:58:26;;;;;;;20.73;9.30;;;-4.00;99.90;;;;;;4950074;28;20035;-77
2021/01/17 03:00:57;;;;;;;22.05;9.18;;;-4.00;99.90;;;;;;4953176;28;20050;-76
2021/01/17 03:03:37;;;;;;;21.42;9.60;;;-4.00;99.90;;;;;;4957775;28;20827;-76
2021/01/17 03:06:09;;;;;;;23.23;10.30;;;-4.00;99.90;;;;;;4939968;28;20027;-76
2021/01/17 03:08:38;;;;;;;22.33;9.95;;;-4.00;99.90;;;;;;4942143;28;20071;-76
2021/01/17 03:11:04;;;;;;;25.40;10.57;;;-4.10;99.90;;;;;;4960195;28;20073;-76
2021/01/17 03:13:35;;;;;;;23.92;10.52;;;-4.10;99.90;;;;;;4960699;28;20039;-76
2021/01/17 03:16:01;;;;;;;23.83;10.73;;;-4.20;99.90;;;;;;4953334;28;20098;-76
2021/01/17 03:18:26;;;;;;;23.35;10.80;;;-4.20;99.90;;;;;;4957068;28;20039;-77
2021/01/17 03:20:52;;;;;;;25.63;9.90;;;-4.20;99.90;;;;;;4953534;28;20793;-76
2021/01/17 03:23:18;;;;;;;22.88;9.70;;;-4.20;99.90;;;;;;4973975;28;20046;-77
2021/01/17 03:25:43;;;;;;;21.05;9.85;;;-4.20;99.90;;;;;;4976622;28;20546;-77
2021/01/17 03:28:09;;;;;;;23.38;9.63;;;-4.30;99.90;;;;;;4961950;28;20042;-77
2021/01/17 03:30:34;;;;;;;22.25;9.35;;;-4.30;99.90;;;;;;4962039;28;20035;-76
2021/01/17 03:33:00;;;;;;;24.85;9.63;;;-4.30;99.90;;;;;;4958345;28;20031;-76
2021/01/17 03:35:26;;;;;;;20.38;9.75;;;-4.40;99.90;;;;;;4941567;29;20035;-76
2021/01/17 03:37:52;;;;;;;22.02;10.20;;;-4.40;99.90;;;;;;4957264;28;20101;-76
2021/01/17 03:40:17;;;;;;;19.98;8.98;;;-4.40;99.90;;;;;;4941856;29;20035;-76
2021/01/17 03:42:43;;;;;;;20.85;9.32;;;-4.50;99.90;;;;;;4942250;29;20118;-76
2021/01/17 03:45:09;;;;;;;24.08;9.45;;;-4.50;99.90;;;;;;4965301;28;20082;-76
2021/01/17 03:47:35;;;;;;;26.17;11.18;;;-4.60;99.90;;;;;;4940116;29;20115;-76
2021/01/17 03:50:00;;;;;;;23.35;9.63;;;-4.70;99.90;;;;;;4949843;28;20673;-76
2021/01/17 03:52:26;;;;;;;18.85;9.07;;;-4.70;99.90;;;;;;4959403;28;20063;-76
2021/01/17 03:54:51;;;;;;;18.67;8.70;;;-4.70;99.90;;;;;;4975814;28;20691;-77
2021/01/17 03:57:17;;;;;;;22.75;9.48;;;-4.70;99.90;;;;;;4960267;28;20030;-76
2021/01/17 03:59:43;;;;;;;19.98;9.45;;;-4.70;99.90;;;;;;4961185;28;20166;-76
2021/01/17 04:02:08;;;;;;;19.90;9.32;;;-4.70;99.90;;;;;;4942604;28;20110;-76
2021/01/17 04:04:34;;;;;;;23.25;9.55;;;-4.70;99.90;;;;;;4957182;28;20047;-77
2021/01/17 04:07:00;;;;;;;22.40;9.52;;;-4.70;99.90;;;;;;4974974;28;20039;-76
2021/01/17 04:09:25;;;;;;;21.23;10.20;;;-4.70;99.90;;;;;;4958719;28;20158;-76
2021/01/17 04:11:51;;;;;;;20.27;9.40;;;-4.60;99.90;;;;;;4960644;28;20497;-77
2021/01/17 04:14:17;;;;;;;19.08;9.20;;;-4.70;99.90;;;;;;4975086;28;20034;-77
2021/01/17 04:16:50;;;;;;;22.40;9.30;;;-4.80;99.90;;;;;;4960071;28;20105;-77
2021/01/17 04:19:16;;;;;;;18.20;9.02;;;-4.80;99.90;;;;;;4975476;28;20497;-77
2021/01/17 04:21:41;;;;;;;20.45;9.32;;;-4.80;99.90;;;;;;4959030;28;20122;-77
2021/01/17 04:24:07;;;;;;;21.63;8.95;;;-4.70;99.90;;;;;;4960412;28;20031;-77
2021/01/17 04:26:33;;;;;;;21.15;9.77;;;-4.80;99.90;;;;;;4959182;28;20039;-77
2021/01/17 04:28:58;;;;;;;23.38;10.18;;;-4.80;99.90;;;;;;4958399;28;20142;-77
2021/01/17 04:31:24;;;;;;;20.55;8.75;;;-4.70;99.90;;;;;;4958441;28;20046;-77
2021/01/17 04:33:50;;;;;;;21.67;9.57;;;-4.70;99.90;;;;;;4955054;28;20042;-77
2021/01/17 04:36:15;;;;;;;19.33;9.25;;;-4.70;99.90;;;;;;4953353;28;20138;-77
2021/01/17 04:38:41;;;;;;;21.63;9.30;;;-4.60;99.90;;;;;;4974802;28;20109;-77
2021/01/17 04:41:11;;;;;;;20.83;9.65;;;-4.60;99.90;;;;;;4959869;28;20058;-76
2021/01/17 04:43:44;;;;;;;21.83;10.13;;;-4.50;99.90;;;;;;4958554;28;20035;-76
2021/01/17 04:46:13;;;;;;;18.95;9.00;;;-4.50;99.90;;;;;;4969784;28;20134;-76
2021/01/17 04:48:42;;;;;;;19.55;9.18;;;-4.50;99.90;;;;;;4963481;28;20043;-76
2021/01/17 04:51:10;;;;;;;21.27;9.90;;;-4.50;99.90;;;;;;4951348;28;20507;-76
2021/01/17 04:53:37;;;;;;;23.42;10.18;;;-4.40;99.90;;;;;;4965823;28;20507;-76
2021/01/17 04:56:05;;;;;;;21.83;11.43;;;-4.40;99.90;;;;;;4946422;28;20027;-77
2021/01/17 04:58:35;;;;;;;25.10;11.90;;;-4.30;99.90;;;;;;4973359;28;20488;-76
2021/01/17 05:01:06;;;;;;;33.72;14.05;;;-4.20;99.90;;;;;;4963218;28;20043;-76
2021/01/17 05:03:47;;;;;;;21.70;11.82;;;-4.20;99.90;;;;;;4948206;28;20046;-76
2021/01/17 05:06:29;;;;;;;26.83;13.27;;;-4.10;99.90;;;;;;4950446;28;20140;-76
2021/01/17 05:09:03;;;;;;;25.58;11.32;;;-4.10;99.90;;;;;;4965589;28;20063;-76
2021/01/17 05:11:39;;;;;;;23.98;10.60;;;-4.10;99.90;;;;;;4952227;28;20039;-76
2021/01/17 05:14:14;;;;;;;18.90;9.30;;;-4.10;99.90;;;;;;4966498;28;20838;-77
2021/01/17 05:16:45;;;;;;;22.20;11.20;;;-4.00;99.90;;;;;;4951617;28;20038;-77
2021/01/17 05:19:16;;;;;;;26.52;11.88;;;-3.90;99.90;;;;;;4958913;28;20342;-77
2021/01/17 05:21:47;;;;;;;26.83;11.85;;;-3.70;99.90;;;;;;4965308;28;20098;-78
2021/01/17 05:24:15;;;;;;;21.90;10.80;;;-3.70;99.90;;;;;;4951546;28;20043;-77
2021/01/17 05:26:50;;;;;;;21.52;10.05;;;-3.60;99.90;;;;;;4942864;28;20044;-78
2021/01/17 05:29:17;;;;;;;;;;;-3.50;99.90;;;;;;4966101;28;20104;-77
2021/01/17 05:31:44;;;;;;;20.33;9.02;;;-3.50;99.90;;;;;;4945387;28;19914;-77
2021/01/17 05:34:12;;;;;;;25.88;11.48;;;-3.60;99.90;;;;;;4939219;28;20105;-77
2021/01/17 05:36:38;;;;;;;29.55;15.38;;;-3.60;99.90;;;;;;4973385;28;20129;-79
2021/01/17 05:39:04;;;;;;;31.40;16.88;;;-3.70;99.90;;;;;;4949951;28;20038;-78
2021/01/17 05:41:30;;;;;;;25.27;11.02;;;-3.70;99.90;;;;;;4945941;28;20070;-78
2021/01/17 05:43:56;;;;;;;22.40;10.68;;;-3.60;99.90;;;;;;4945278;28;20027;-78
2021/01/17 05:46:21;;;;;;;21.52;9.88;;;-3.60;99.90;;;;;;4958233;28;20035;-78
2021/01/17 05:48:47;;;;;;;24.52;10.20;;;-3.60;99.90;;;;;;4938294;29;20479;-78
2021/01/17 05:51:28;;;;;;;20.60;9.23;;;-3.60;99.90;;;;;;4953955;28;20188;-79
2021/01/17 05:53:55;;;;;;;19.98;9.25;;;-3.60;99.90;;;;;;4947293;28;20491;-78
2021/01/17 05:56:21;;;;;;;20.63;9.98;;;-3.60;99.90;;;;;;4944949;28;20054;-78
2021/01/17 05:58:47;;;;;;;21.75;10.88;;;-3.60;99.90;;;;;;4946778;28;20118;-77
2021/01/17 06:01:19;;;;;;;20.85;10.30;;;-3.50;99.90;;;;;;4957861;28;20577;-77
2021/01/17 06:03:53;;;;;;;23.73;10.93;;;-3.50;99.90;;;;;;4953031;28;20036;-77
2021/01/17 06:06:27;;;;;;;21.33;10.00;;;-3.50;99.90;;;;;;4946289;28;20031;-77
2021/01/17 06:08:54;;;;;;;27.38;9.93;;;-3.60;99.90;;;;;;4950235;28;20048;-77
2021/01/17 06:11:21;;;;;;;19.92;9.55;;;-3.70;99.90;;;;;;4949010;28;20729;-77
2021/01/17 06:14:02;;;;;;;19.05;9.57;;;-3.70;99.90;;;;;;4954868;28;20899;-77
2021/01/17 06:16:33;;;;;;;19.70;9.15;;;-3.60;99.90;;;;;;4937065;29;20047;-77
2021/01/17 06:19:03;;;;;;;22.92;10.30;;;-3.60;99.90;;;;;;4956397;28;20487;-77
2021/01/17 06:21:30;;;;;;;18.73;9.07;;;-3.70;99.90;;;;;;4961120;28;20105;-77
2021/01/17 06:24:00;;;;;;;21.80;9.65;;;-3.60;99.90;;;;;;4952306;28;20030;-74
2021/01/17 06:26:31;;;;;;;16.88;8.13;;;-3.50;99.90;;;;;;4966404;28;20041;-73
2021/01/17 06:28:58;;;;;;;20.63;9.07;;;-3.50;99.90;;;;;;4950335;28;20034;-76
2021/01/17 06:31:29;;;;;;;19.05;8.27;;;-3.50;99.90;;;;;;4954756;28;20637;-73
2021/01/17 06:34:09;;;;;;;21.70;9.13;;;-3.40;99.90;;;;;;4951551;28;20142;-74
2021/01/17 06:36:37;;;;;;;19.35;8.68;;;-3.40;99.90;;;;;;4956082;28;20035;-74
2021/01/17 06:39:04;;;;;;;17.48;8.75;;;-3.30;99.90;;;;;;4959858;28;20031;-73
2021/01/17 06:41:39;;;;;;;23.45;10.82;;;-3.30;99.90;;;;;;4943402;28;20046;-75
2021/01/17 06:44:13;;;;;;;19.45;9.00;;;-3.10;99.90;;;;;;4957904;28;20046;-73
2021/01/17 06:46:46;;;;;;;18.38;8.77;;;-3.20;99.90;;;;;;4947995;28;20034;-74
2021/01/17 06:49:23;;;;;;;18.08;8.82;;;-3.20;99.90;;;;;;4952172;28;20086;-75
2021/01/17 06:51:50;;;;;;;21.10;10.38;;;-3.10;99.90;;;;;;4955626;28;20085;-75
2021/01/17 06:54:18;;;;;;;27.27;12.73;;;-3.10;99.90;;;;;;4961219;28;20034;-75
2021/01/17 06:56:46;;;;;;;27.92;13.77;;;-3.10;99.90;;;;;;4963909;28;20407;-76
2021/01/17 06:59:12;;;;;;;26.98;12.10;;;-3.10;99.90;;;;;;4957434;28;20473;-75
2021/01/17 07:01:44;;;;;;;20.98;9.75;;;-3.10;99.90;;;;;;4962044;28;20334;-75
2021/01/17 07:04:17;;;;;;;22.58;9.93;;;-3.10;99.90;;;;;;4956997;28;20090;-75
2021/01/17 07:07:22;;;;;;;20.65;9.75;;;-3.10;99.90;;;;;;4953779;28;20383;-75
2021/01/17 07:09:50;;;;;;;22.93;9.77;;;-3.00;99.90;;;;;;4955541;28;20042;-75
2021/01/17 07:12:38;;;;;;;20.77;9.50;;;-3.00;99.90;;;;;;4971770;28;20095;-75
2021/01/17 07:15:09;;;;;;;19.08;9.25;;;-2.80;99.90;;;;;;4959845;28;20049;-75
2021/01/17 07:17:41;;;;;;;18.30;8.30;;;-2.80;99.90;;;;;;4960223;28;20050;-75
2021/01/17 07:20:12;;;;;;;16.52;8.77;;;-2.90;99.90;;;;;;4947409;28;20046;-75
2021/01/17 07:22:39;;;;;;;22.55;8.77;;;-2.80;99.90;;;;;;4957376;28;20042;-75
2021/01/17 07:25:09;;;;;;;23.30;9.98;;;-2.70;99.90;;;;;;4959771;28;20058;-75
2021/01/17 07:27:48;;;;;;;19.48;10.02;;;-2.70;99.90;;;;;;4953905;28;20035;-75
2021/01/17 07:30:19;;;;;;;20.58;9.55;;;-2.70;99.90;;;;;;4959309;28;20039;-76
2021/01/17 07:32:54;;;;;;;19.73;10.23;;;-2.70;99.90;;;;;;4949710;28;20042;-75
2021/01/17 07:35:25;;;;;;;24.00;10.85;;;-2.70;99.90;;;;;;4961220;28;20874;-76
2021/01/17 07:37:54;;;;;;;19.83;9.30;;;-2.60;99.90;;;;;;4975151;28;20221;-78
2021/01/17 07:43:11;;;;;;;51.38;22.23;;;-2.60;99.90;;;;;;4966812;28;20043;-76
2021/01/17 07:45:39;;;;;;;47.78;22.13;;;-2.50;99.90;;;;;;4956218;28;20504;-75
2021/01/17 07:48:10;;;;;;;38.47;18.42;;;-2.50;99.90;;;;;;4971427;28;20030;-77
2021/01/17 07:50:38;;;;;;;23.73;11.70;;;-2.40;99.90;;;;;;4942122;28;20042;-76
2021/01/17 07:53:12;;;;;;;18.52;9.15;;;-2.40;99.90;;;;;;4956456;28;20118;-77
2021/01/17 07:55:39;;;;;;;30.80;16.13;;;-2.30;99.90;;;;;;4941623;29;20070;-76
2021/01/17 07:58:09;;;;;;;35.60;17.25;;;-2.30;99.90;;;;;;4962679;28;20109;-76
2021/01/17 08:00:38;;;;;;;36.13;17.27;;;-2.20;99.90;;;;;;4962651;28;20042;-77
2021/01/17 08:03:04;;;;;;;28.10;13.82;;;-2.30;99.90;;;;;;4960869;28;20066;-76
2021/01/17 08:05:51;;;;;;;18.95;10.05;;;-2.20;99.90;;;;;;4961060;28;20050;-76
2021/01/17 08:08:35;;;;;;;26.42;10.75;;;-2.10;99.90;;;;;;4975292;28;20039;-76
2021/01/17 08:11:02;;;;;;;18.92;9.40;;;-2.10;99.90;;;;;;4941456;28;20039;-76
2021/01/17 08:13:32;;;;;;;22.65;9.65;;;-2.20;99.90;;;;;;4956332;28;20146;-76
2021/01/17 08:16:14;;;;;;;17.73;8.85;;;-2.20;99.90;;;;;;4961850;28;20039;-76
2021/01/17 08:18:40;;;;;;;15.10;8.23;;;-2.10;99.90;;;;;;4959395;28;20050;-76
2021/01/17 08:21:21;;;;;;;17.70;8.98;;;-2.00;99.90;;;;;;4960155;28;20757;-76
2021/01/17 08:24:18;;;;;;;20.83;9.45;;;-2.00;99.90;;;;;;4941315;28;20130;-76
2021/01/17 08:27:00;;;;;;;15.13;7.85;;;-1.90;99.90;;;;;;4953511;28;20030;-76
2021/01/17 08:29:26;;;;;;;15.48;8.00;;;-1.80;99.90;;;;;;4961157;28;20039;-76
2021/01/17 08:31:52;;;;;;;17.33;8.85;;;-1.80;99.90;;;;;;4960373;28;20053;-76
2021/01/17 08:34:28;;;;;;;16.52;8.45;;;-1.80;99.90;;;;;;4970490;28;20050;-76
2021/01/17 08:36:55;;;;;;;18.08;8.73;;;-1.80;99.90;;;;;;4949186;28;20039;-76
2021/01/17 08:39:50;;;;;;;15.05;7.35;;;-1.70;99.90;;;;;;4958647;28;20030;-75
2021/01/17 08:42:39;;;;;;;16.35;8.25;;;-1.70;99.90;;;;;;4967922;28;20070;-76
2021/01/17 08:45:27;;;;;;;14.85;8.18;;;-1.70;99.90;;;;;;4940100;29;20324;-76
2021/01/17 08:47:55;;;;;;;19.30;8.10;;;-1.70;99.90;;;;;;4940983;28;20031;-76
2021/01/17 08:50:36;;;;;;;22.60;11.68;;;-1.60;99.90;;;;;;4941308;29;20522;-76
2021/01/17 08:53:10;;;;;;;31.08;15.65;;;-1.60;99.90;;;;;;4955607;28;20601;-76
2021/01/17 08:55:47;;;;;;;22.65;11.35;;;-1.40;99.90;;;;;;4946683;28;20043;-76
2021/01/17 08:58:36;;;;;;;22.45;10.80;;;-1.30;99.90;;;;;;4966387;28;20050;-76
2021/01/17 09:01:04;;;;;;;18.13;9.38;;;-1.20;99.90;;;;;;4944004;28;20193;-76
2021/01/17 09:03:42;;;;;;;17.45;8.55;;;-1.20;99.90;;;;;;4945079;28;20035;-79
2021/01/17 09:06:08;;;;;;;15.55;8.18;;;-1.30;99.90;;;;;;4962199;28;20039;-78
2021/01/17 09:08:34;;;;;;;16.45;8.15;;;-1.30;99.90;;;;;;4959687;28;20109;-75
2021/01/17 09:11:01;;;;;;;34.17;16.73;;;-1.30;99.90;;;;;;4958722;28;20122;-76
2021/01/17 09:13:29;;;;;;;18.40;9.02;;;-1.30;99.90;;;;;;4958333;28;20487;-75
2021/01/17 09:16:00;;;;;;;17.25;8.60;;;-1.20;99.90;;;;;;4957988;28;20171;-76
2021/01/17 09:18:27;;;;;;;19.00;9.02;;;-1.30;99.90;;;;;;4957972;28;20293;-78
2021/01/17 09:20:54;;;;;;;17.25;8.70;;;-1.30;99.90;;;;;;4964428;28;20030;-78
2021/01/17 09:23:21;;;;;;;16.48;9.07;;;-1.30;99.90;;;;;;4963851;28;20130;-78
2021/01/17 09:25:48;;;;;;;17.63;8.70;;;-1.10;99.90;;;;;;4946705;28;20665;-77
2021/01/17 09:28:14;;;;;;;20.38;8.93;;;-1.00;99.90;;;;;;4958528;28;20042;-76
2021/01/17 09:30:51;;;;;;;17.60;8.73;;;-1.00;99.90;;;;;;4948588;28;20495;-76
2021/01/17 09:33:17;;;;;;;23.15;12.40;;;-1.00;99.90;;;;;;4949861;28;20042;-77
2021/01/17 09:35:44;;;;;;;26.83;12.82;;;-0.90;99.90;;;;;;4958171;28;20073;-76
2021/01/17 09:38:15;;;;;;;19.60;10.40;;;-0.90;99.90;;;;;;4952374;28;20039;-77
2021/01/17 09:40:46;;;;;;;19.33;9.88;;;-0.80;99.90;;;;;;4957055;28;20038;-76
2021/01/17 09:43:12;;;;;;;19.50;9.70;;;-0.70;99.90;;;;;;4973722;28;20105;-77
2021/01/17 09:45:38;;;;;;;32.40;19.02;;;-0.50;99.90;;;;;;4964329;28;20038;-76
2021/01/17 09:48:04;;;;;;;22.58;13.05;;;-0.30;99.90;;;;;;4946709;28;20033;-76
2021/01/17 09:50:35;;;;;;;15.20;7.93;;;-0.10;99.90;;;;;;4948057;28;20038;-77
2021/01/17 09:53:08;;;;;;;14.43;8.10;;;-0.10;99.90;;;;;;4956090;28;20035;-77
2021/01/17 09:55:37;;;;;;;18.92;9.80;;;0.00;99.90;;;;;;4958331;28;20041;-77
2021/01/17 09:58:12;;;;;;;22.40;12.15;;;0.00;99.90;;;;;;4960491;28;20035;-77
2021/01/17 10:00:39;;;;;;;22.47;11.00;;;0.10;99.90;;;;;;4962568;28;20081;-77
2021/01/17 10:03:15;;;;;;;30.30;15.52;;;0.10;99.90;;;;;;4954902;28;20653;-77
2021/01/17 10:05:44;;;;;;;47.83;23.65;;;0.10;99.90;;;;;;4956533;28;20042;-77
2021/01/17 10:08:15;;;;;;;26.33;13.73;;;0.20;99.90;;;;;;4958801;28;20932;-76
2021/01/17 10:10:44;;;;;;;18.83;10.35;;;0.20;99.90;;;;;;4954423;28;20416;-76
2021/01/17 10:13:10;;;;;;;20.60;10.38;;;0.10;99.90;;;;;;4960142;28;20035;-76
2021/01/17 10:15:37;;;;;;;22.58;11.73;;;0.10;99.90;;;;;;4971312;28;20428;-76
2021/01/17 10:18:03;;;;;;;42.67;19.95;;;0.10;99.90;;;;;;4977272;28;20041;-79
2021/01/17 10:20:31;;;;;;;30.40;15.68;;;0.00;99.90;;;;;;4967210;28;20035;-75
2021/01/17 10:23:00;;;;;;;19.55;10.35;;;0.10;99.90;;;;;;4964863;28;20035;-76
2021/01/17 10:25:30;;;;;;;29.00;14.10;;;0.10;99.90;;;;;;4962625;28;20076;-76
2021/01/17 10:28:08;;;;;;;20.98;11.18;;;0.20;99.90;;;;;;4965034;28;20821;-76
2021/01/17 10:30:40;;;;;;;35.50;17.50;;;0.30;99.90;;;;;;4964923;28;20039;-75
2021/01/17 10:33:12;;;;;;;47.22;21.33;;;0.40;99.90;;;;;;4963462;28;20041;-75
2021/01/17 10:35:43;;;;;;;38.53;17.67;;;0.30;99.90;;;;;;4942130;28;20059;-76
2021/01/17 10:38:11;;;;;;;22.38;11.93;;;0.20;99.90;;;;;;4971765;28;20034;-75
2021/01/17 10:40:38;;;;;;;30.90;15.18;;;0.10;99.90;;;;;;4961958;28;20043;-75
2021/01/17 10:43:06;;;;;;;33.72;14.82;;;0.20;99.90;;;;;;4950859;28;20030;-75
2021/01/17 10:45:34;;;;;;;17.92;10.05;;;0.30;99.90;;;;;;4958421;28;20046;-75
2021/01/17 10:48:04;;;;;;;53.55;25.30;;;0.40;99.90;;;;;;4952121;28;20047;-73
2021/01/17 10:50:35;;;;;;;25.50;12.60;;;0.40;99.90;;;;;;4962188;28;20046;-74
2021/01/17 10:53:22;;;;;;;19.67;10.57;;;0.20;99.90;;;;;;4958007;28;20037;-73
2021/01/17 10:55:53;;;;;;;20.65;10.88;;;0.20;99.90;;;;;;4977255;28;20034;-74
2021/01/17 10:58:28;;;;;;;18.55;9.65;;;0.50;99.90;;;;;;4954856;28;20038;-74
2021/01/17 11:00:56;;;;;;;32.53;13.55;;;0.50;99.90;;;;;;4964038;28;20440;-76
2021/01/17 11:03:36;;;;;;;48.90;19.08;;;0.70;99.90;;;;;;4963723;28;20035;-76
2021/01/17 11:06:15;;;;;;;21.95;9.88;;;0.80;99.90;;;;;;4964137;28;20038;-76
2021/01/17 11:08:55;;;;;;;23.15;11.63;;;0.70;99.90;;;;;;4958335;28;20520;-78
2021/01/17 11:11:31;;;;;;;19.30;9.80;;;0.80;99.90;;;;;;4964465;28;20050;-76
2021/01/17 11:14:00;;;;;;;18.52;9.50;;;0.90;99.90;;;;;;4963500;28;20697;-76
2021/01/17 11:16:53;;;;;;;19.73;10.00;;;0.70;99.90;;;;;;4959373;28;20690;-76
2021/01/17 11:19:30;;;;;;;21.55;10.80;;;0.90;99.90;;;;;;4956213;28;20043;-76
2021/01/17 11:21:57;;;;;;;17.88;9.35;;;0.90;99.90;;;;;;4959746;28;20035;-76
2021/01/17 11:24:31;;;;;;;17.90;9.13;;;0.80;99.90;;;;;;4961094;28;20121;-77
2021/01/17 11:27:14;;;;;;;19.83;9.98;;;0.70;99.90;;;;;;4957409;28;20035;-76
2021/01/17 11:29:44;;;;;;;17.83;9.63;;;0.80;99.90;;;;;;4956580;28;20081;-76
2021/01/17 11:32:10;;;;;;;20.92;10.40;;;0.80;99.90;;;;;;4967031;28;20501;-74
2021/01/17 11:34:41;;;;;;;16.70;9.05;;;0.70;99.90;;;;;;4952531;28;20046;-73
2021/01/17 11:37:07;;;;;;;18.58;9.20;;;0.80;99.90;;;;;;4956609;28;20493;-75
2021/01/17 11:39:34;;;;;;;17.58;8.60;;;0.80;99.90;;;;;;4950560;28;20030;-75
2021/01/17 11:42:00;;;;;;;18.15;8.00;;;1.00;99.90;;;;;;4957392;28;20049;-69
2021/01/17 11:44:34;;;;;;;15.80;7.28;;;1.00;99.90;;;;;;4954468;28;20703;-69
2021/01/17 11:47:01;;;;;;;13.25;7.20;;;1.10;99.90;;;;;;4954267;28;20105;-74
2021/01/17 11:49:28;;;;;;;14.95;7.90;;;1.10;99.90;;;;;;4957585;28;20734;-75
2021/01/17 11:51:54;;;;;;;16.17;8.95;;;0.90;99.90;;;;;;4959231;28;20570;-75
2021/01/17 11:54:25;;;;;;;18.38;9.77;;;0.50;99.90;;;;;;4953832;28;20572;-74
2021/01/17 11:57:03;;;;;;;15.95;8.98;;;0.60;99.90;;;;;;4958567;28;20038;-75
2021/01/17 11:59:34;;;;;;;17.17;9.10;;;0.90;99.90;;;;;;4966057;28;20043;-74
2021/01/17 12:02:23;;;;;;;16.20;8.93;;;1.10;99.90;;;;;;4956057;28;20170;-74
2021/01/17 12:04:57;;;;;;;20.85;9.05;;;0.90;99.90;;;;;;4954840;28;20649;-73
2021/01/17 12:07:22;;;;;;;17.00;9.05;;;0.90;99.90;;;;;;4962858;28;20127;-73
2021/01/17 12:09:48;;;;;;;16.42;8.15;;;0.90;99.90;;;;;;4939877;28;20035;-74
2021/01/17 12:12:18;;;;;;;15.05;8.15;;;0.90;99.90;;;;;;4953338;28;20605;-74
2021/01/17 12:14:45;;;;;;;16.80;8.50;;;1.10;99.90;;;;;;4959094;28;20039;-74
2021/01/17 12:17:11;;;;;;;13.25;7.82;;;1.00;99.90;;;;;;4953728;28;20055;-76
2021/01/17 12:19:38;;;;;;;23.27;10.10;;;1.00;99.90;;;;;;4960808;28;20061;-78
2021/01/17 12:22:06;;;;;;;15.68;8.20;;;1.00;99.90;;;;;;4951857;28;20093;-76
2021/01/17 12:24:34;;;;;;;19.65;9.30;;;1.00;99.90;;;;;;4967518;28;20043;-76
2021/01/17 12:27:01;;;;;;;14.15;7.93;;;1.00;99.90;;;;;;4949152;28;20026;-76
2021/01/17 12:29:27;;;;;;;19.60;9.07;;;1.20;99.90;;;;;;4952214;28;20035;-76
2021/01/17 12:31:53;;;;;;;17.05;8.45;;;1.00;99.90;;;;;;4959157;28;20809;-76
2021/01/17 12:34:20;;;;;;;14.90;7.63;;;0.80;99.90;;;;;;4968543;28;20049;-76
2021/01/17 12:36:47;;;;;;;14.73;8.20;;;0.70;99.90;;;;;;4950826;28;20043;-79
2021/01/17 12:39:18;;;;;;;17.95;9.15;;;0.80;99.90;;;;;;4955465;28;20031;-77
2021/01/17 12:41:46;;;;;;;18.55;9.23;;;1.00;99.90;;;;;;4972598;28;20047;-76
2021/01/17 12:44:13;;;;;;;21.25;9.55;;;1.20;99.90;;;;;;4960386;28;20123;-76
2021/01/17 12:46:39;;;;;;;19.55;9.55;;;1.30;99.90;;;;;;4951725;28;20396;-76
2021/01/17 12:49:04;;;;;;;16.92;9.43;;;1.50;99.90;;;;;;4945596;28;20040;-76
2021/01/17 12:51:31;;;;;;;15.63;8.13;;;1.50;99.90;;;;;;4974439;28;20043;-76